Time;durP1;ratioP1;P1;durP2;ratioP2;P2;SDS_P1;SDS_P2;PMS_P1;PMS_P2;Temp;Humidity;BMP_temperature;BMP_pressure;BME280_temperature;BME280_humidity;BME280_pressure;Samples;Min_cycle;Max_cycle;Signal;HPM_P1;HPM_P2
2023/08/19 00:00:56;;;;;;;4.38;1.80;;;19.00;99.90;;;;;;5030415;28;20166;-79
2023/08/19 00:03:22;;;;;;;8.52;1.70;;;19.00;99.90;;;;;;5030347;28;20645;-77
2023/08/19 00:05:47;;;;;;;7.45;1.83;;;19.20;99.90;;;;;;5030282;28;20178;-79
2023/08/19 00:08:13;;;;;;;8.70;2.05;;;19.00;99.90;;;;;;5030619;28;20170;-77
2023/08/19 00:10:39;;;;;;;10.73;2.35;;;19.20;99.90;;;;;;5030209;28;20252;-77
2023/08/19 00:13:05;;;;;;;10.63;2.22;;;19.10;99.90;;;;;;5029963;28;20221;-74
2023/08/19 00:15:31;;;;;;;7.78;1.55;;;19.10;99.90;;;;;;5029897;28;20252;-77
2023/08/19 00:17:59;;;;;;;12.05;1.80;;;19.10;99.90;;;;;;5030245;28;20182;-76
2023/08/19 00:20:27;;;;;;;12.85;2.05;;;18.90;99.90;;;;;;5031610;28;20190;-76
2023/08/19 00:22:56;;;;;;;11.35;2.50;;;19.00;99.90;;;;;;5033783;28;20687;-73
2023/08/19 00:25:23;;;;;;;10.05;2.00;;;19.00;99.90;;;;;;5033929;28;20166;-73
2023/08/19 00:27:48;;;;;;;11.68;2.50;;;18.90;99.90;;;;;;5015972;28;20704;-74
2023/08/19 00:30:14;;;;;;;10.43;2.80;;;18.90;99.90;;;;;;5033876;28;20197;-74
2023/08/19 00:32:40;;;;;;;14.55;2.55;;;18.10;99.90;;;;;;5047553;28;20177;-76
2023/08/19 00:35:06;;;;;;;15.93;2.53;;;18.90;99.90;;;;;;5036881;28;20180;-75
2023/08/19 00:37:32;;;;;;;11.75;2.22;;;18.80;99.90;;;;;;5037841;28;20262;-75
2023/08/19 00:39:58;;;;;;;11.88;2.60;;;18.60;99.90;;;;;;5045189;28;20201;-75
2023/08/19 00:42:24;;;;;;;12.82;2.58;;;18.80;99.90;;;;;;5039309;28;20185;-74
2023/08/19 00:44:49;;;;;;;13.95;2.42;;;18.70;99.90;;;;;;5039824;28;20269;-74
2023/08/19 00:47:15;;;;;;;15.13;2.63;;;18.70;99.90;;;;;;5031943;28;20640;-75
2023/08/19 00:49:42;;;;;;;19.25;2.65;;;18.60;99.90;;;;;;5049704;28;20196;-75
2023/08/19 00:52:08;;;;;;;12.38;2.63;;;18.80;99.90;;;;;;5041780;28;20185;-75
2023/08/19 00:54:33;;;;;;;13.07;2.58;;;18.30;99.90;;;;;;5053081;28;20181;-75
2023/08/19 00:57:00;;;;;;;13.02;2.05;;;18.60;99.90;;;;;;5040655;28;20668;-78
2023/08/19 00:59:26;;;;;;;13.23;2.28;;;18.50;99.90;;;;;;5033029;28;20170;-76
2023/08/19 01:01:52;;;;;;;21.48;3.15;;;18.40;99.90;;;;;;5031695;28;20644;-76
2023/08/19 01:04:18;;;;;;;15.80;2.55;;;19.30;99.90;;;;;;5032876;28;20196;-75
2023/08/19 01:07:11;;;;;;;17.25;2.53;;;18.30;99.90;;;;;;5033069;28;20212;-76
2023/08/19 01:10:03;;;;;;;16.83;2.60;;;18.40;99.90;;;;;;5048606;28;20177;-75
2023/08/19 01:12:51;;;;;;;10.02;2.58;;;18.30;99.90;;;;;;5053046;28;20235;-77
2023/08/19 01:15:23;;;;;;;17.50;3.10;;;18.30;99.90;;;;;;5052891;28;20189;-76
2023/08/19 01:17:50;;;;;;;22.00;3.00;;;18.00;99.90;;;;;;5051865;28;20181;-75
2023/08/19 01:20:16;;;;;;;15.82;2.90;;;18.20;99.90;;;;;;5052958;28;20177;-75
2023/08/19 01:23:05;;;;;;;16.27;3.08;;;18.20;99.90;;;;;;5052909;28;20165;-75
2023/08/19 01:25:32;;;;;;;17.88;3.17;;;18.20;99.90;;;;;;5052764;28;20162;-75
2023/08/19 01:28:02;;;;;;;15.52;2.88;;;18.20;99.90;;;;;;5052519;28;20264;-75
2023/08/19 01:30:30;;;;;;;20.85;3.05;;;18.20;99.90;;;;;;5052622;28;20256;-75
2023/08/19 01:32:56;;;;;;;16.60;3.33;;;18.30;99.90;;;;;;5051672;28;20166;-75
2023/08/19 01:35:23;;;;;;;18.08;3.33;;;18.20;99.90;;;;;;5050964;28;20710;-75
2023/08/19 01:38:14;;;;;;;22.83;3.38;;;18.30;99.90;;;;;;5052589;28;20180;-77
2023/08/19 01:40:40;;;;;;;26.42;3.70;;;18.30;99.90;;;;;;5051037;28;20165;-78
2023/08/19 01:43:10;;;;;;;16.58;2.55;;;18.30;99.90;;;;;;5052251;28;20177;-78
2023/08/19 01:45:37;;;;;;;20.40;3.92;;;18.20;99.90;;;;;;5040697;28;20174;-79
2023/08/19 01:48:03;;;;;;;18.92;3.35;;;18.30;99.90;;;;;;5032517;28;20659;-80
2023/08/19 01:50:28;;;;;;;19.95;3.13;;;18.20;99.90;;;;;;5032325;28;20177;-79
2023/08/19 01:52:54;;;;;;;14.18;2.53;;;18.20;99.90;;;;;;5038630;28;20181;-77
2023/08/19 01:55:20;;;;;;;18.05;3.45;;;18.20;99.90;;;;;;5030652;28;20205;-80
2023/08/19 01:57:45;;;;;;;17.70;2.88;;;18.20;99.90;;;;;;5044148;28;20533;-77
2023/08/19 02:00:11;;;;;;;20.20;3.13;;;18.20;99.90;;;;;;5031907;28;20162;-76
2023/08/19 02:02:37;;;;;;;17.30;3.25;;;18.20;99.90;;;;;;5041311;28;20188;-77
2023/08/19 02:05:02;;;;;;;18.92;3.08;;;18.20;99.90;;;;;;5051873;28;20625;-79
2023/08/19 02:07:28;;;;;;;16.30;2.90;;;18.20;99.90;;;;;;5051713;28;20670;-77
2023/08/19 02:09:54;;;;;;;23.00;3.30;;;18.20;99.90;;;;;;5051736;28;20201;-79
2023/08/19 02:12:19;;;;;;;19.88;2.78;;;18.20;99.90;;;;;;5051719;28;20252;-78
2023/08/19 02:14:45;;;;;;;21.08;3.65;;;;;;;;;;5041166;28;20553;-80
2023/08/19 02:17:11;;;;;;;19.95;4.38;;;18.20;99.90;;;;;;5031813;28;20202;-78
2023/08/19 02:19:36;;;;;;;19.00;3.15;;;18.20;99.90;;;;;;5031761;28;20605;-81
2023/08/19 02:22:02;;;;;;;17.67;2.75;;;18.00;99.90;;;;;;5031750;28;20264;-81
2023/08/19 02:24:28;;;;;;;23.70;3.22;;;18.20;99.90;;;;;;5031917;28;20166;-80
2023/08/19 02:26:54;;;;;;;19.08;3.42;;;18.20;99.90;;;;;;5031668;28;20221;-79
2023/08/19 02:29:20;;;;;;;19.48;3.00;;;18.20;99.90;;;;;;5014293;28;20177;-78
2023/08/19 02:31:46;;;;;;;15.75;2.65;;;18.20;99.90;;;;;;5031649;28;20204;-80
2023/08/19 02:34:11;;;;;;;16.27;1.75;;;18.20;99.90;;;;;;5031412;28;20170;-81
2023/08/19 02:36:37;;;;;;;20.83;3.17;;;18.20;99.90;;;;;;5031555;28;20326;-76
2023/08/19 02:39:02;;;;;;;17.58;2.67;;;18.20;99.90;;;;;;5051082;28;20173;-76
2023/08/19 02:41:28;;;;;;;12.90;2.97;;;18.20;99.90;;;;;;5051071;28;20177;-77
2023/08/19 02:43:54;;;;;;;18.38;3.28;;;18.20;99.90;;;;;;5050343;28;20173;-81
2023/08/19 02:46:20;;;;;;;15.43;2.53;;;18.10;99.90;;;;;;5050786;28;20177;-77
2023/08/19 02:48:46;;;;;;;16.73;2.17;;;18.10;99.90;;;;;;5050859;28;20542;-77
2023/08/19 02:51:11;;;;;;;17.88;2.70;;;18.00;99.90;;;;;;5033935;28;20514;-80
2023/08/19 02:53:37;;;;;;;14.32;2.92;;;18.10;99.90;;;;;;5033216;28;20294;-77
2023/08/19 02:56:06;;;;;;;13.75;2.00;;;18.10;99.90;;;;;;5050100;28;20220;-77
2023/08/19 02:58:32;;;;;;;14.48;1.73;;;18.10;99.90;;;;;;5051027;28;20181;-78
2023/08/19 03:00:58;;;;;;;16.92;2.85;;;18.10;99.90;;;;;;5050666;28;20181;-80
2023/08/19 03:03:24;;;;;;;16.85;2.92;;;18.00;99.90;;;;;;5049093;28;20686;-82
2023/08/19 03:05:49;;;;;;;16.02;2.53;;;18.00;99.90;;;;;;5050425;28;20248;-82
2023/08/19 03:08:15;;;;;;;12.15;2.15;;;18.10;99.90;;;;;;5050689;28;20250;-81
2023/08/19 03:10:41;;;;;;;18.67;1.88;;;18.10;99.90;;;;;;5047948;28;20189;-82
2023/08/19 03:13:08;;;;;;;15.48;2.65;;;18.40;99.90;;;;;;5039748;28;20168;-83
2023/08/19 03:15:36;;;;;;;5.85;1.17;;;18.10;99.90;;;;;;5050815;28;20254;-80
2023/08/19 03:18:02;;;;;;;12.60;1.98;;;18.10;99.90;;;;;;5050479;28;20694;-79
2023/08/19 03:20:28;;;;;;;10.82;1.73;;;18.10;99.90;;;;;;5040996;28;20178;-85
2023/08/19 03:22:53;;;;;;;15.13;2.55;;;18.10;99.90;;;;;;5033209;28;20594;-79
2023/08/19 03:25:19;;;;;;;16.38;2.58;;;;;;;;;;5050578;28;20177;-79
2023/08/19 03:27:45;;;;;;;7.95;1.50;;;17.90;99.90;;;;;;5049938;28;20225;-78
2023/08/19 03:30:11;;;;;;;12.93;2.10;;;17.90;99.90;;;;;;5050254;28;20177;-79
2023/08/19 03:32:37;;;;;;;9.52;1.83;;;17.90;99.90;;;;;;5050228;28;20213;-78
2023/08/19 03:35:02;;;;;;;11.70;2.10;;;17.90;99.90;;;;;;5050597;28;20227;-80
2023/08/19 03:37:28;;;;;;;16.33;2.10;;;17.70;99.90;;;;;;5050277;28;20181;-78
2023/08/19 03:39:54;;;;;;;15.07;1.95;;;17.80;99.90;;;;;;5050411;28;20269;-79
2023/08/19 03:42:20;;;;;;;12.05;1.80;;;17.80;99.90;;;;;;5046655;28;20182;-75
2023/08/19 03:44:46;;;;;;;15.95;2.00;;;17.70;99.90;;;;;;5040355;28;20173;-76
2023/08/19 03:47:13;;;;;;;15.93;2.70;;;17.60;99.90;;;;;;5050469;28;20184;-78
2023/08/19 03:49:39;;;;;;;16.08;1.80;;;17.70;99.90;;;;;;5032941;28;20185;-77
2023/08/19 03:52:07;;;;;;;12.85;2.00;;;17.60;99.90;;;;;;5029618;28;20251;-77
2023/08/19 03:54:32;;;;;;;15.45;2.20;;;17.60;99.90;;;;;;5030796;28;20176;-80
2023/08/19 03:56:58;;;;;;;15.20;2.50;;;17.60;99.90;;;;;;5033236;28;20295;-76
2023/08/19 03:59:24;;;;;;;21.75;2.75;;;17.60;99.90;;;;;;5034626;28;20852;-78
2023/08/19 04:01:50;;;;;;;8.13;1.70;;;17.70;99.90;;;;;;5050936;28;20584;-78
2023/08/19 04:04:15;;;;;;;13.43;2.03;;;17.50;99.90;;;;;;5054177;28;20628;-76
2023/08/19 04:06:41;;;;;;;9.60;1.90;;;17.50;99.90;;;;;;5054465;28;20197;-79
2023/08/19 04:09:07;;;;;;;12.07;1.90;;;17.50;99.90;;;;;;5054293;28;20632;-79
2023/08/19 04:11:33;;;;;;;15.55;2.10;;;17.50;99.90;;;;;;5054483;28;20184;-78
2023/08/19 04:13:59;;;;;;;13.23;1.80;;;17.50;99.90;;;;;;5054257;28;20165;-78
2023/08/19 04:16:24;;;;;;;14.85;2.35;;;17.40;99.90;;;;;;5053930;28;20213;-78
2023/08/19 04:18:51;;;;;;;8.73;1.60;;;17.50;99.90;;;;;;5053901;28;20177;-78
2023/08/19 04:21:17;;;;;;;11.32;2.05;;;17.40;99.90;;;;;;5053846;28;20189;-78
2023/08/19 04:23:43;;;;;;;11.15;1.58;;;17.40;99.90;;;;;;5054215;28;20833;-79
2023/08/19 04:26:09;;;;;;;9.38;1.48;;;17.40;99.90;;;;;;5053960;28;20223;-79
2023/08/19 04:28:34;;;;;;;7.95;1.60;;;17.40;99.90;;;;;;5054075;28;20508;-80
2023/08/19 04:31:05;;;;;;;10.50;1.77;;;17.40;99.90;;;;;;5053847;28;20180;-79
2023/08/19 04:33:31;;;;;;;9.80;1.38;;;17.40;99.90;;;;;;5053546;28;20640;-81
2023/08/19 04:35:57;;;;;;;8.40;1.75;;;17.30;99.90;;;;;;5053346;28;20207;-81
2023/08/19 04:38:22;;;;;;;12.63;2.17;;;17.40;99.90;;;;;;5036798;28;20261;-82
2023/08/19 04:40:50;;;;;;;12.10;1.50;;;17.40;99.90;;;;;;5033608;28;20178;-82
2023/08/19 04:43:16;;;;;;;9.95;1.60;;;17.40;99.90;;;;;;5039435;28;20261;-83
2023/08/19 04:45:42;;;;;;;9.88;1.52;;;17.30;99.90;;;;;;5044731;28;20201;-80
2023/08/19 04:48:08;;;;;;;16.23;1.90;;;17.30;99.90;;;;;;5048765;28;20178;-81
2023/08/19 04:50:33;;;;;;;12.98;1.77;;;17.30;99.90;;;;;;5044916;28;20322;-81
2023/08/19 04:52:59;;;;;;;16.48;1.60;;;17.30;99.90;;;;;;5047297;28;20636;-83
2023/08/19 04:55:26;;;;;;;12.00;1.70;;;17.40;99.90;;;;;;5033243;28;20236;-82
2023/08/19 04:57:51;;;;;;;9.25;1.75;;;17.30;99.90;;;;;;5035152;28;20247;-78
2023/08/19 05:00:17;;;;;;;7.60;1.50;;;17.30;99.90;;;;;;5043548;28;20553;-80
2023/08/19 05:02:43;;;;;;;9.75;1.27;;;17.30;99.90;;;;;;5032071;28;20178;-77
2023/08/19 05:05:09;;;;;;;12.82;1.70;;;17.30;99.90;;;;;;5048991;28;20706;-78
2023/08/19 05:07:34;;;;;;;8.75;1.67;;;17.30;99.90;;;;;;5051722;28;20202;-77
2023/08/19 05:10:00;;;;;;;6.20;1.13;;;17.30;99.90;;;;;;5053039;28;20177;-80
2023/08/19 05:12:25;;;;;;;9.40;1.50;;;17.50;99.90;;;;;;5053188;28;20663;-79
2023/08/19 05:14:51;;;;;;;9.98;1.77;;;17.30;99.90;;;;;;5053123;28;20223;-80
2023/08/19 05:17:18;;;;;;;8.90;2.08;;;17.30;99.90;;;;;;5036776;28;20245;-79
2023/08/19 05:19:44;;;;;;;14.32;1.95;;;17.20;99.90;;;;;;5033044;28;20170;-79
2023/08/19 05:22:10;;;;;;;9.40;1.75;;;17.30;99.90;;;;;;5033032;28;20174;-79
2023/08/19 05:24:35;;;;;;;9.23;1.55;;;17.20;99.90;;;;;;5032853;28;20664;-80
2023/08/19 05:27:01;;;;;;;8.52;1.83;;;17.30;99.90;;;;;;5032572;28;20214;-79
2023/08/19 05:29:27;;;;;;;10.20;1.63;;;17.30;99.90;;;;;;5031534;28;20174;-79
2023/08/19 05:31:52;;;;;;;11.82;2.00;;;17.50;99.90;;;;;;5032500;28;20182;-78
2023/08/19 05:34:18;;;;;;;11.73;1.50;;;17.30;99.90;;;;;;5030833;28;20169;-79
2023/08/19 05:36:44;;;;;;;5.63;1.50;;;17.30;99.90;;;;;;5032340;28;20208;-82
2023/08/19 05:39:10;;;;;;;10.82;1.80;;;17.30;99.90;;;;;;5032598;28;20170;-80
2023/08/19 05:41:35;;;;;;;14.77;2.10;;;17.30;99.90;;;;;;5032558;28;20177;-81
2023/08/19 05:44:01;;;;;;;9.30;1.88;;;17.40;99.90;;;;;;5032195;28;20641;-82
2023/08/19 05:46:26;;;;;;;16.08;2.00;;;17.30;99.90;;;;;;5032189;28;20575;-81
2023/08/19 05:48:52;;;;;;;9.85;1.80;;;17.30;99.90;;;;;;5032171;28;20189;-81
2023/08/19 05:51:19;;;;;;;5.68;1.13;;;17.40;99.90;;;;;;5032213;28;20503;-81
2023/08/19 05:53:44;;;;;;;8.40;2.20;;;17.40;99.90;;;;;;5047363;28;20200;-82
2023/08/19 05:56:10;;;;;;;10.63;1.95;;;17.40;99.90;;;;;;5052338;28;20213;-79
2023/08/19 05:58:35;;;;;;;6.35;1.63;;;17.40;99.90;;;;;;5052281;28;20608;-79
2023/08/19 06:01:06;;;;;;;11.30;1.75;;;17.50;99.90;;;;;;5052140;28;20176;-79
2023/08/19 06:03:32;;;;;;;12.15;1.88;;;17.50;99.90;;;;;;5050715;28;20169;-78
2023/08/19 06:06:06;;;;;;;7.18;1.42;;;17.60;99.90;;;;;;5051898;28;20173;-80
2023/08/19 06:08:32;;;;;;;9.32;1.83;;;17.60;99.90;;;;;;5052088;28;20161;-78
2023/08/19 06:11:06;;;;;;;8.25;1.65;;;17.60;99.90;;;;;;5052007;28;20177;-81
2023/08/19 06:13:36;;;;;;;8.93;1.55;;;17.70;99.90;;;;;;5050432;28;20172;-79
2023/08/19 06:16:06;;;;;;;12.52;1.45;;;17.70;99.90;;;;;;5051938;28;20217;-78
2023/08/19 06:18:32;;;;;;;15.70;2.05;;;17.80;99.90;;;;;;5051431;28;20636;-81
2023/08/19 06:20:58;;;;;;;6.35;1.58;;;17.80;99.90;;;;;;5052101;28;20181;-80
2023/08/19 06:23:23;;;;;;;11.95;2.17;;;17.80;99.90;;;;;;5051962;28;20546;-81
2023/08/19 06:25:51;;;;;;;12.63;1.80;;;17.90;99.90;;;;;;5039824;28;20604;-77
2023/08/19 06:28:18;;;;;;;9.00;1.58;;;18.00;99.90;;;;;;5038767;28;20213;-78
2023/08/19 06:30:44;;;;;;;9.05;1.42;;;18.00;99.90;;;;;;5033180;28;20208;-83
2023/08/19 06:33:11;;;;;;;12.63;1.92;;;18.00;99.90;;;;;;5030355;28;20679;-80
2023/08/19 06:35:37;;;;;;;9.85;1.15;;;18.00;99.90;;;;;;5032308;28;20297;-82
2023/08/19 06:38:07;;;;;;;13.32;1.80;;;18.00;99.90;;;;;;5030203;28;20178;-77
2023/08/19 06:40:34;;;;;;;8.75;1.58;;;18.00;99.90;;;;;;5031771;28;20174;-85
2023/08/19 06:43:00;;;;;;;11.93;1.48;;;18.10;99.90;;;;;;5031613;28;20162;-83
2023/08/19 06:45:27;;;;;;;10.40;1.77;;;18.10;99.90;;;;;;5044621;28;20169;-82
2023/08/19 06:47:53;;;;;;;8.23;1.63;;;18.10;99.90;;;;;;5042255;28;20651;-82
2023/08/19 06:50:19;;;;;;;8.70;1.30;;;18.10;99.90;;;;;;5049937;28;20189;-81
2023/08/19 06:52:45;;;;;;;10.75;1.73;;;18.20;99.90;;;;;;5051302;28;20306;-81
2023/08/19 06:55:12;;;;;;;12.73;1.92;;;18.30;99.90;;;;;;5051438;28;20204;-80
2023/08/19 06:57:47;;;;;;;14.38;2.10;;;18.40;99.90;;;;;;5046352;28;20173;-81
2023/08/19 07:00:14;;;;;;;8.50;1.88;;;18.40;99.90;;;;;;5050333;28;20179;-81
2023/08/19 07:02:40;;;;;;;14.00;1.92;;;18.40;99.90;;;;;;5049387;28;20655;-81
2023/08/19 07:05:14;;;;;;;8.88;1.35;;;18.40;99.90;;;;;;5042508;28;20178;-82
2023/08/19 07:07:50;;;;;;;6.35;1.48;;;18.50;99.90;;;;;;5048515;28;20212;-83
2023/08/19 07:10:18;;;;;;;15.18;2.03;;;18.40;99.90;;;;;;5045399;28;20165;-84
2023/08/19 07:12:44;;;;;;;7.20;1.50;;;18.40;99.90;;;;;;5030189;28;20822;-82
2023/08/19 07:15:14;;;;;;;12.05;1.73;;;18.40;99.90;;;;;;5030075;28;20192;-83
2023/08/19 07:17:47;;;;;;;13.25;1.75;;;18.50;99.90;;;;;;5036084;28;20552;-84
2023/08/19 07:20:16;;;;;;;11.95;1.75;;;18.70;99.90;;;;;;5050580;28;20184;-81
2023/08/19 07:22:48;;;;;;;10.88;1.90;;;18.70;99.90;;;;;;5049734;28;20177;-84
2023/08/19 07:25:14;;;;;;;11.18;1.80;;;18.80;99.90;;;;;;5053182;28;20177;-82
2023/08/19 07:27:42;;;;;;;11.88;1.52;;;18.90;99.90;;;;;;5052807;28;20216;-82
2023/08/19 07:30:09;;;;;;;10.63;1.95;;;18.80;99.90;;;;;;5037446;28;20174;-84
2023/08/19 07:32:36;;;;;;;9.40;1.35;;;18.80;99.90;;;;;;5039989;28;20181;-85
2023/08/19 07:35:03;;;;;;;8.07;1.80;;;18.80;99.90;;;;;;5043345;28;20173;-81
2023/08/19 07:37:29;;;;;;;10.10;1.33;;;18.70;99.90;;;;;;5056002;28;20215;-84
2023/08/19 07:39:56;;;;;;;12.18;2.22;;;18.70;99.90;;;;;;5055431;28;20271;-83
2023/08/19 07:42:21;;;;;;;12.25;2.60;;;18.90;99.90;;;;;;5055879;28;20392;-85
2023/08/19 07:44:47;;;;;;;6.30;1.33;;;18.90;99.90;;;;;;5056570;28;20644;-82
2023/08/19 07:47:13;;;;;;;12.95;1.75;;;18.80;99.90;;;;;;5055793;28;20326;-86
2023/08/19 07:49:38;;;;;;;10.07;1.30;;;18.90;99.90;;;;;;5058235;28;20253;-85
2023/08/19 07:52:04;;;;;;;8.85;1.70;;;19.00;99.90;;;;;;5038200;28;20174;-84
2023/08/19 07:54:30;;;;;;;12.95;1.70;;;19.00;99.90;;;;;;5035800;28;20181;-87
2023/08/19 07:56:57;;;;;;;10.88;2.08;;;19.00;99.90;;;;;;5034030;28;20300;-85
2023/08/19 07:59:24;;;;;;;6.15;1.48;;;19.10;99.90;;;;;;5044503;28;20629;-82
2023/08/19 08:01:49;;;;;;;12.73;1.60;;;19.20;99.90;;;;;;5040796;28;20208;-78
2023/08/19 08:04:16;;;;;;;9.73;1.55;;;19.40;99.90;;;;;;5035400;28;20544;-82
2023/08/19 08:06:42;;;;;;;7.80;1.55;;;19.60;99.90;;;;;;5034537;28;20280;-80
2023/08/19 08:09:07;;;;;;;8.93;1.45;;;19.70;99.90;;;;;;5044153;28;20185;-83
2023/08/19 08:11:33;;;;;;;11.35;1.80;;;19.50;99.90;;;;;;5052429;28;20234;-80
2023/08/19 08:13:59;;;;;;;9.90;1.85;;;19.60;99.90;;;;;;5052848;28;20315;-85
2023/08/19 08:16:24;;;;;;;10.18;1.83;;;19.70;99.90;;;;;;5055613;28;20295;-84
2023/08/19 08:18:50;;;;;;;12.63;1.45;;;19.70;99.90;;;;;;5067450;28;20529;-81
2023/08/19 08:21:15;;;;;;;11.05;1.83;;;19.50;99.90;;;;;;5052609;28;20177;-83
2023/08/19 08:23:41;;;;;;;13.35;1.52;;;19.90;99.90;;;;;;5046827;28;20180;-81
2023/08/19 08:26:08;;;;;;;10.20;1.65;;;20.90;99.90;;;;;;5043386;28;20295;-83
2023/08/19 08:28:33;;;;;;;12.05;1.88;;;21.30;99.90;;;;;;5044903;28;20161;-84
2023/08/19 08:31:00;;;;;;;11.57;1.65;;;22.30;99.90;;;;;;5040404;28;20616;-84
2023/08/19 08:33:26;;;;;;;9.15;1.42;;;22.20;99.90;;;;;;5041179;28;20173;-85
2023/08/19 08:35:51;;;;;;;7.35;1.40;;;21.90;99.90;;;;;;5052924;28;20208;-83
2023/08/19 08:38:17;;;;;;;10.35;1.60;;;21.50;99.90;;;;;;5055047;28;20224;-84
2023/08/19 08:40:43;;;;;;;10.18;1.38;;;21.10;99.90;;;;;;5054057;28;20223;-82
2023/08/19 08:43:09;;;;;;;11.48;1.55;;;20.80;99.90;;;;;;5050063;28;20204;-87
2023/08/19 08:45:35;;;;;;;9.77;1.60;;;20.60;99.90;;;;;;5054364;28;20177;-80
2023/08/19 08:48:02;;;;;;;7.95;1.40;;;20.60;99.90;;;;;;5045604;28;20170;-74
2023/08/19 08:50:28;;;;;;;8.20;1.30;;;20.60;99.90;;;;;;5052481;28;20670;-79
2023/08/19 08:52:56;;;;;;;4.93;1.08;;;21.10;99.90;;;;;;5051471;28;20400;-83
2023/08/19 08:55:21;;;;;;;5.97;1.50;;;21.60;99.90;;;;;;5066998;28;20177;-79
2023/08/19 08:57:47;;;;;;;7.95;1.50;;;21.50;99.90;;;;;;5054388;28;20246;-82
2023/08/19 09:00:14;;;;;;;9.93;1.63;;;21.60;99.90;;;;;;5054386;28;20656;-81
2023/08/19 09:02:41;;;;;;;6.45;1.35;;;21.20;99.90;;;;;;5054549;28;20722;-83
2023/08/19 09:05:07;;;;;;;5.35;1.58;;;21.10;99.90;;;;;;5053114;28;20260;-84
2023/08/19 09:07:38;;;;;;;9.23;1.40;;;20.90;99.90;;;;;;5053170;28;20157;-86
2023/08/19 09:10:11;;;;;;;9.00;1.48;;;20.70;99.90;;;;;;5053559;28;20260;-84
2023/08/19 09:12:38;;;;;;;12.88;1.50;;;20.40;99.90;;;;;;5051510;28;20173;-85
2023/08/19 09:15:04;;;;;;;9.18;1.30;;;20.00;99.90;;;;;;5036526;28;20254;-84
2023/08/19 09:17:32;;;;;;;5.22;1.15;;;20.00;99.90;;;;;;5033753;28;20241;-85
2023/08/19 09:19:57;;;;;;;10.63;1.60;;;20.00;99.90;;;;;;5034695;28;20252;-85
2023/08/19 09:22:23;;;;;;;9.55;1.38;;;20.20;99.90;;;;;;5033410;28;20253;-83
2023/08/19 09:24:52;;;;;;;11.68;1.90;;;20.50;99.90;;;;;;5032340;28;20257;-83
2023/08/19 09:27:28;;;;;;;7.68;1.42;;;20.60;99.90;;;;;;5033276;28;20312;-81
2023/08/19 09:29:54;;;;;;;6.78;1.70;;;21.10;99.90;;;;;;5031412;28;20687;-82
2023/08/19 09:32:39;;;;;;;9.70;2.20;;;21.50;99.90;;;;;;5031416;28;20170;-85
2023/08/19 09:35:06;;;;;;;7.68;1.27;;;21.80;99.90;;;;;;5031206;28;20736;-82
2023/08/19 09:37:34;;;;;;;6.30;1.33;;;22.30;1.00;;;;;;5031184;28;20292;-82
2023/08/19 09:40:00;;;;;;;9.63;1.85;;;21.90;1.00;;;;;;5031261;28;20177;-83
2023/08/19 09:42:29;;;;;;;8.65;1.58;;;22.20;1.00;;;;;;5031754;28;20181;-80
2023/08/19 09:44:54;;;;;;;7.95;1.33;;;22.10;1.00;;;;;;5032617;28;20169;-81
2023/08/19 09:47:21;;;;;;;7.85;1.30;;;22.80;99.90;;;;;;5032157;28;20660;-81
2023/08/19 09:49:53;;;;;;;6.80;1.30;;;23.00;42.60;;;;;;5037853;28;20173;-81
2023/08/19 09:52:18;;;;;;;8.73;1.13;;;23.00;1.00;;;;;;5055282;28;20181;-81
2023/08/19 09:54:54;;;;;;;11.52;1.45;;;22.80;1.00;;;;;;5060935;28;20192;-82
2023/08/19 09:57:33;;;;;;;8.88;1.30;;;23.10;99.90;;;;;;5062437;28;20258;-80
2023/08/19 10:00:00;;;;;;;10.70;1.80;;;23.00;99.90;;;;;;5064134;28;20208;-80
2023/08/19 10:02:27;;;;;;;7.05;1.75;;;23.60;99.90;;;;;;5055836;28;20204;-78
2023/08/19 10:04:55;;;;;;;12.68;1.63;;;22.90;16.30;;;;;;5047390;28;20219;-81
2023/08/19 10:07:24;;;;;;;7.30;1.27;;;22.00;1.00;;;;;;5047954;28;20173;-85
2023/08/19 10:09:52;;;;;;;8.48;1.25;;;22.00;1.00;;;;;;5036124;28;20252;-82
2023/08/19 10:12:20;;;;;;;5.65;1.38;;;23.30;99.90;;;;;;5053261;28;20197;-83
2023/08/19 10:14:49;;;;;;;10.85;1.95;;;21.70;99.90;;;;;;5052023;28;20177;-81
2023/08/19 10:17:15;;;;;;;10.52;1.45;;;21.40;99.90;;;;;;5050850;28;20216;-80
2023/08/19 10:19:53;;;;;;;7.70;1.35;;;21.50;1.00;;;;;;5041930;28;20244;-80
2023/08/19 10:22:19;;;;;;;7.88;1.48;;;21.70;99.90;;;;;;5031434;28;20177;-83
2023/08/19 10:24:47;;;;;;;10.25;1.95;;;21.40;99.90;;;;;;5032742;28;20269;-79
2023/08/19 10:27:19;;;;;;;14.68;2.03;;;21.00;1.00;;;;;;5030693;28;20221;-82
2023/08/19 10:29:48;;;;;;;10.70;1.65;;;21.40;1.00;;;;;;5031987;28;20181;-82
2023/08/19 10:32:28;;;;;;;9.95;1.55;;;21.40;1.00;;;;;;5039977;28;20262;-82
2023/08/19 10:35:12;;;;;;;8.93;1.50;;;21.30;1.00;;;;;;5036723;28;20174;-81
2023/08/19 10:37:42;;;;;;;10.60;1.60;;;21.20;1.00;;;;;;5032139;28;20205;-86
2023/08/19 10:40:12;;;;;;;10.98;1.83;;;21.10;1.00;;;;;;5032194;28;20181;-78
2023/08/19 10:42:41;;;;;;;10.05;1.30;;;21.20;1.00;;;;;;5031131;28;20182;-87
2023/08/19 10:45:19;;;;;;;5.85;1.27;;;21.50;1.00;;;;;;5033533;28;20182;-81
2023/08/19 10:47:44;;;;;;;3.92;0.90;;;21.50;1.00;;;;;;5031509;28;20609;-83
2023/08/19 10:50:11;;;;;;;5.50;1.10;;;21.30;1.00;;;;;;5045139;28;20181;-84
2023/08/19 10:53:01;;;;;;;8.27;1.30;;;21.20;1.00;;;;;;5051754;28;20346;-83
2023/08/19 10:55:27;;;;;;;5.93;1.35;;;21.30;1.00;;;;;;5041109;28;20173;-84
2023/08/19 10:57:53;;;;;;;7.15;1.23;;;21.30;1.00;;;;;;5051416;28;20182;-84
2023/08/19 11:00:30;;;;;;;8.60;1.33;;;21.40;1.00;;;;;;5049324;28;20177;-81
2023/08/19 11:02:55;;;;;;;8.15;1.38;;;21.70;99.90;;;;;;5051326;28;20656;-82
2023/08/19 11:05:27;;;;;;;7.80;1.17;;;21.90;99.90;;;;;;5051139;28;20188;-83
2023/08/19 11:07:54;;;;;;;11.32;1.38;;;22.20;1.00;;;;;;5050394;28;20184;-84
2023/08/19 11:10:20;;;;;;;7.78;1.10;;;22.30;1.00;;;;;;5051697;28;20260;-82
2023/08/19 11:12:48;;;;;;;8.80;1.30;;;22.30;99.90;;;;;;5051588;28;20588;-82
2023/08/19 11:15:13;;;;;;;8.20;1.30;;;22.00;1.00;;;;;;5051342;28;20658;-83
2023/08/19 11:17:39;;;;;;;5.03;1.17;;;21.90;99.90;;;;;;5037398;28;20210;-84
2023/08/19 11:20:11;;;;;;;6.90;1.38;;;21.60;99.90;;;;;;5032652;28;20185;-83
2023/08/19 11:22:41;;;;;;;8.85;1.42;;;21.50;99.90;;;;;;5013623;28;20229;-83
2023/08/19 11:25:07;;;;;;;7.72;1.60;;;21.70;99.90;;;;;;5029902;28;20194;-82
2023/08/19 11:27:33;;;;;;;8.75;1.60;;;22.00;99.90;;;;;;5030883;28;20731;-82
2023/08/19 11:29:59;;;;;;;9.27;1.35;;;22.50;8.20;;;;;;5029834;28;20227;-83
2023/08/19 11:32:29;;;;;;;4.82;1.30;;;22.90;1.00;;;;;;5031160;28;20174;-81
2023/08/19 11:34:55;;;;;;;9.85;1.30;;;23.60;1.00;;;;;;5031996;28;20177;-85
2023/08/19 11:37:20;;;;;;;4.85;1.17;;;23.50;99.90;;;;;;5029757;28;20213;-83
2023/08/19 11:39:46;;;;;;;5.95;1.05;;;23.30;1.00;;;;;;5029755;28;20177;-82
2023/08/19 11:42:12;;;;;;;6.60;1.00;;;22.70;1.00;;;;;;5030850;28;20176;-80
2023/08/19 11:44:37;;;;;;;8.43;1.30;;;22.80;1.00;;;;;;5031312;28;20182;-82
2023/08/19 11:47:04;;;;;;;7.40;1.30;;;22.60;27.60;;;;;;5031165;28;20169;-83
2023/08/19 11:49:30;;;;;;;4.57;0.70;;;22.60;1.00;;;;;;5035994;28;20173;-85
2023/08/19 11:51:56;;;;;;;5.75;0.93;;;22.40;1.00;;;;;;5050794;28;20220;-81
2023/08/19 11:54:23;;;;;;;6.25;1.05;;;22.10;1.00;;;;;;5049215;28;20166;-82
2023/08/19 11:56:59;;;;;;;7.03;1.15;;;22.50;1.00;;;;;;5049472;28;20304;-82
2023/08/19 11:59:34;;;;;;;5.18;1.27;;;22.40;99.90;;;;;;5050321;28;20219;-80
2023/08/19 12:02:05;;;;;;;7.95;1.70;;;22.20;1.00;;;;;;5050685;28;20250;-82
2023/08/19 12:04:35;;;;;;;8.23;1.48;;;22.10;1.00;;;;;;5049292;28;20256;-81
2023/08/19 12:07:10;;;;;;;6.38;1.23;;;21.70;99.90;;;;;;5051083;28;20165;-82
2023/08/19 12:09:37;;;;;;;9.75;2.10;;;21.70;99.90;;;;;;5050904;28;20160;-83
2023/08/19 12:12:10;;;;;;;8.27;1.60;;;21.50;99.90;;;;;;5051274;28;20228;-83
2023/08/19 12:14:39;;;;;;;5.85;1.17;;;21.50;99.90;;;;;;5049514;28;20173;-81
2023/08/19 12:17:08;;;;;;;8.07;1.55;;;21.50;99.90;;;;;;5047162;28;20217;-83
2023/08/19 12:19:37;;;;;;;6.15;1.00;;;21.40;99.90;;;;;;5035230;28;20192;-82
2023/08/19 12:22:03;;;;;;;7.45;1.23;;;21.30;99.90;;;;;;5042590;28;20177;-80
2023/08/19 12:24:29;;;;;;;6.38;1.15;;;21.40;99.90;;;;;;5054054;28;20631;-80
2023/08/19 12:26:54;;;;;;;13.93;1.30;;;21.40;99.90;;;;;;5052811;28;20227;-80
2023/08/19 12:29:20;;;;;;;9.35;1.40;;;21.60;99.90;;;;;;5054300;28;20519;-80
2023/08/19 12:31:46;;;;;;;7.78;1.20;;;22.40;99.90;;;;;;5052813;28;20173;-78
2023/08/19 12:34:14;;;;;;;13.05;1.38;;;23.70;99.90;;;;;;5052125;28;20185;-82
2023/08/19 12:36:39;;;;;;;6.75;1.15;;;23.50;1.00;;;;;;5053763;28;20221;-79
2023/08/19 12:39:05;;;;;;;4.80;1.20;;;23.40;99.90;;;;;;5053895;28;20868;-82
2023/08/19 12:41:30;;;;;;;7.45;1.50;;;23.00;1.00;;;;;;5034964;28;20695;-80
2023/08/19 12:43:56;;;;;;;8.88;1.42;;;22.80;1.00;;;;;;5044506;28;20230;-76